sensor_id;sensor_type;location;lat;lon;timestamp;temperature;humidity
23520;DHT22;11936;50.820;4.336;2022-12-18T00:00:43;1.40;99.90
23520;DHT22;11936;50.820;4.336;2022-12-18T00:03:09;1.30;99.90
23520;DHT22;11936;50.820;4.336;2022-12-18T00:05:35;1.40;99.90
23520;DHT22;11936;50.820;4.336;2022-12-18T00:08:00;1.40;99.90
23520;DHT22;11936;50.820;4.336;2022-12-18T00:10:27;1.30;99.90
23520;DHT22;11936;50.820;4.336;2022-12-18T00:12:53;1.30;99.90
23520;DHT22;11936;50.820;4.336;2022-12-18T00:15:19;1.40;99.90
23520;DHT22;11936;50.820;4.336;2022-12-18T00:17:44;1.40;99.90
23520;DHT22;11936;50.820;4.336;2022-12-18T00:20:10;1.30;99.90
23520;DHT22;11936;50.820;4.336;2022-12-18T00:22:36;1.20;99.90
23520;DHT22;11936;50.820;4.336;2022-12-18T00:25:01;1.30;99.90
23520;DHT22;11936;50.820;4.336;2022-12-18T00:27:27;1.10;99.90
23520;DHT22;11936;50.820;4.336;2022-12-18T00:29:53;1.20;99.90
23520;DHT22;11936;50.820;4.336;2022-12-18T00:32:18;1.00;99.90
23520;DHT22;11936;50.820;4.336;2022-12-18T00:34:44;0.90;99.90
23520;DHT22;11936;50.820;4.336;2022-12-18T00:37:09;0.80;99.90
23520;DHT22;11936;50.820;4.336;2022-12-18T00:39:35;0.90;99.90
23520;DHT22;11936;50.820;4.336;2022-12-18T00:42:01;0.80;99.90
23520;DHT22;11936;50.820;4.336;2022-12-18T00:44:45;0.80;99.90
23520;DHT22;11936;50.820;4.336;2022-12-18T00:47:10;0.90;99.90
23520;DHT22;11936;50.820;4.336;2022-12-18T00:49:36;0.80;99.90
23520;DHT22;11936;50.820;4.336;2022-12-18T00:52:01;0.70;99.90
23520;DHT22;11936;50.820;4.336;2022-12-18T00:54:27;0.80;99.90
23520;DHT22;11936;50.820;4.336;2022-12-18T00:56:53;0.70;99.90
23520;DHT22;11936;50.820;4.336;2022-12-18T00:59:20;0.70;99.90
23520;DHT22;11936;50.820;4.336;2022-12-18T01:01:46;0.60;99.90
23520;DHT22;11936;50.820;4.336;2022-12-18T01:04:12;0.60;99.90
23520;DHT22;11936;50.820;4.336;2022-12-18T01:06:38;0.60;99.90
23520;DHT22;11936;50.820;4.336;2022-12-18T01:09:03;0.70;99.90
23520;DHT22;11936;50.820;4.336;2022-12-18T01:11:29;0.70;99.90
23520;DHT22;11936;50.820;4.336;2022-12-18T01:13:55;0.70;99.90
23520;DHT22;11936;50.820;4.336;2022-12-18T01:16:21;0.70;99.90
23520;DHT22;11936;50.820;4.336;2022-12-18T01:18:47;0.80;99.90
23520;DHT22;11936;50.820;4.336;2022-12-18T01:21:15;0.80;99.90
23520;DHT22;11936;50.820;4.336;2022-12-18T01:23:41;0.80;99.90
23520;DHT22;11936;50.820;4.336;2022-12-18T01:26:08;0.80;99.90
23520;DHT22;11936;50.820;4.336;2022-12-18T01:28:35;0.90;99.90
23520;DHT22;11936;50.820;4.336;2022-12-18T01:31:16;0.80;99.90
23520;DHT22;11936;50.820;4.336;2022-12-18T01:33:41;1.00;99.90
23520;DHT22;11936;50.820;4.336;2022-12-18T01:36:08;0.90;99.90
23520;DHT22;11936;50.820;4.336;2022-12-18T01:38:34;0.90;99.90
23520;DHT22;11936;50.820;4.336;2022-12-18T01:41:00;0.90;99.90
23520;DHT22;11936;50.820;4.336;2022-12-18T01:43:53;1.00;99.90
23520;DHT22;11936;50.820;4.336;2022-12-18T01:46:21;1.10;99.90
23520;DHT22;11936;50.820;4.336;2022-12-18T01:48:49;1.10;99.90
23520;DHT22;11936;50.820;4.336;2022-12-18T01:51:16;1.00;99.90
23520;DHT22;11936;50.820;4.336;2022-12-18T01:53:42;0.90;99.90
23520;DHT22;11936;50.820;4.336;2022-12-18T01:56:12;1.10;99.90
23520;DHT22;11936;50.820;4.336;2022-12-18T01:58:54;1.10;99.90
23520;DHT22;11936;50.820;4.336;2022-12-18T02:01:25;1.10;99.90
23520;DHT22;11936;50.820;4.336;2022-12-18T02:03:51;1.00;99.90
23520;DHT22;11936;50.820;4.336;2022-12-18T02:06:37;1.00;99.90
23520;DHT22;11936;50.820;4.336;2022-12-18T02:09:21;1.00;99.90
23520;DHT22;11936;50.820;4.336;2022-12-18T02:12:02;0.80;99.90
23520;DHT22;11936;50.820;4.336;2022-12-18T02:14:38;1.00;99.90
23520;DHT22;11936;50.820;4.336;2022-12-18T02:25:13;1.10;99.90
23520;DHT22;11936;50.820;4.336;2022-12-18T02:27:45;1.10;99.90
23520;DHT22;11936;50.820;4.336;2022-12-18T02:30:11;1.10;99.90
23520;DHT22;11936;50.820;4.336;2022-12-18T02:32:43;1.10;99.90
23520;DHT22;11936;50.820;4.336;2022-12-18T02:35:19;0.90;99.90
23520;DHT22;11936;50.820;4.336;2022-12-18T02:37:47;0.90;99.90
23520;DHT22;11936;50.820;4.336;2022-12-18T02:40:14;0.90;99.90
23520;DHT22;11936;50.820;4.336;2022-12-18T02:42:41;0.80;99.90
23520;DHT22;11936;50.820;4.336;2022-12-18T02:45:07;0.70;99.90
23520;DHT22;11936;50.820;4.336;2022-12-18T02:47:36;0.70;99.90
23520;DHT22;11936;50.820;4.336;2022-12-18T02:56:11;0.80;99.90
23520;DHT22;11936;50.820;4.336;2022-12-18T02:58:48;0.80;99.90
23520;DHT22;11936;50.820;4.336;2022-12-18T03:01:19;0.70;99.90
23520;DHT22;11936;50.820;4.336;2022-12-18T03:03:59;0.60;99.90
23520;DHT22;11936;50.820;4.336;2022-12-18T03:06:37;0.70;99.90
23520;DHT22;11936;50.820;4.336;2022-12-18T03:09:12;0.70;99.90
23520;DHT22;11936;50.820;4.336;2022-12-18T03:11:42;0.80;99.90
23520;DHT22;11936;50.820;4.336;2022-12-18T03:14:29;0.50;99.90
23520;DHT22;11936;50.820;4.336;2022-12-18T03:16:59;0.30;99.90
23520;DHT22;11936;50.820;4.336;2022-12-18T03:19:28;0.30;99.90
23520;DHT22;11936;50.820;4.336;2022-12-18T03:21:56;0.20;99.90
23520;DHT22;11936;50.820;4.336;2022-12-18T03:24:24;0.30;99.90
23520;DHT22;11936;50.820;4.336;2022-12-18T03:26:52;0.20;99.90
23520;DHT22;11936;50.820;4.336;2022-12-18T03:29:25;0.30;99.90
23520;DHT22;11936;50.820;4.336;2022-12-18T03:31:55;0.20;99.90
23520;DHT22;11936;50.820;4.336;2022-12-18T03:34:34;0.10;99.90
23520;DHT22;11936;50.820;4.336;2022-12-18T03:37:01;0.30;99.90
23520;DHT22;11936;50.820;4.336;2022-12-18T03:39:27;0.20;99.90
23520;DHT22;11936;50.820;4.336;2022-12-18T03:45:31;0.30;99.90
23520;DHT22;11936;50.820;4.336;2022-12-18T03:50:59;0.30;99.90
23520;DHT22;11936;50.820;4.336;2022-12-18T03:53:51;0.20;99.90
23520;DHT22;11936;50.820;4.336;2022-12-18T03:56:19;0.30;99.90
23520;DHT22;11936;50.820;4.336;2022-12-18T03:58:47;0.30;99.90
23520;DHT22;11936;50.820;4.336;2022-12-18T04:01:15;0.20;99.90
23520;DHT22;11936;50.820;4.336;2022-12-18T04:03:42;0.20;99.90
23520;DHT22;11936;50.820;4.336;2022-12-18T04:06:10;0.10;99.90
23520;DHT22;11936;50.820;4.336;2022-12-18T04:08:36;0.10;99.90
23520;DHT22;11936;50.820;4.336;2022-12-18T04:11:02;-0.10;99.90
23520;DHT22;11936;50.820;4.336;2022-12-18T04:13:31;-0.10;99.90
23520;DHT22;11936;50.820;4.336;2022-12-18T04:15:57;-0.10;99.90
23520;DHT22;11936;50.820;4.336;2022-12-18T04:18:23;-0.10;99.90
23520;DHT22;11936;50.820;4.336;2022-12-18T04:20:48;0.00;99.90
23520;DHT22;11936;50.820;4.336;2022-12-18T04:23:14;-0.10;99.90
23520;DHT22;11936;50.820;4.336;2022-12-18T04:25:40;0.00;99.90
23520;DHT22;11936;50.820;4.336;2022-12-18T04:28:05;0.10;99.90
23520;DHT22;11936;50.820;4.336;2022-12-18T04:30:31;0.10;99.90
23520;DHT22;11936;50.820;4.336;2022-12-18T04:32:57;0.20;99.90
23520;DHT22;11936;50.820;4.336;2022-12-18T04:35:22;0.40;99.90
23520;DHT22;11936;50.820;4.336;2022-12-18T04:37:48;0.30;99.90
23520;DHT22;11936;50.820;4.336;2022-12-18T04:40:14;0.20;99.90
23520;DHT22;11936;50.820;4.336;2022-12-18T04:42:40;0.10;99.90
23520;DHT22;11936;50.820;4.336;2022-12-18T04:45:06;0.10;99.90
23520;DHT22;11936;50.820;4.336;2022-12-18T04:47:32;0.20;99.90
23520;DHT22;11936;50.820;4.336;2022-12-18T04:49:58;0.10;99.90
23520;DHT22;11936;50.820;4.336;2022-12-18T04:52:23;-0.10;99.90
23520;DHT22;11936;50.820;4.336;2022-12-18T04:54:49;-0.10;99.90
23520;DHT22;11936;50.820;4.336;2022-12-18T04:57:14;0.00;99.90
23520;DHT22;11936;50.820;4.336;2022-12-18T04:59:40;0.00;99.90
23520;DHT22;11936;50.820;4.336;2022-12-18T05:02:06;0.00;99.90
23520;DHT22;11936;50.820;4.336;2022-12-18T05:04:31;0.10;99.90
23520;DHT22;11936;50.820;4.336;2022-12-18T05:06:57;-0.10;99.90
23520;DHT22;11936;50.820;4.336;2022-12-18T05:09:23;0.00;99.90
23520;DHT22;11936;50.820;4.336;2022-12-18T05:11:48;0.00;99.90
23520;DHT22;11936;50.820;4.336;2022-12-18T05:14:14;-0.10;99.90
23520;DHT22;11936;50.820;4.336;2022-12-18T05:16:40;-0.10;99.90
23520;DHT22;11936;50.820;4.336;2022-12-18T05:19:05;-0.10;99.90
23520;DHT22;11936;50.820;4.336;2022-12-18T05:21:31;-0.20;99.90
23520;DHT22;11936;50.820;4.336;2022-12-18T05:23:56;-0.20;99.90
23520;DHT22;11936;50.820;4.336;2022-12-18T05:26:22;-0.30;99.90
23520;DHT22;11936;50.820;4.336;2022-12-18T05:28:48;-0.30;99.90
23520;DHT22;11936;50.820;4.336;2022-12-18T05:31:14;-0.20;99.90
23520;DHT22;11936;50.820;4.336;2022-12-18T05:33:39;-0.30;99.90
23520;DHT22;11936;50.820;4.336;2022-12-18T05:36:07;-0.30;99.90
23520;DHT22;11936;50.820;4.336;2022-12-18T05:38:35;-0.20;99.90
23520;DHT22;11936;50.820;4.336;2022-12-18T05:41:01;-0.10;99.90
23520;DHT22;11936;50.820;4.336;2022-12-18T05:43:27;-0.10;99.90
23520;DHT22;11936;50.820;4.336;2022-12-18T05:45:54;-0.30;99.90
23520;DHT22;11936;50.820;4.336;2022-12-18T05:48:20;-0.10;99.90
23520;DHT22;11936;50.820;4.336;2022-12-18T05:50:47;-0.10;99.90
23520;DHT22;11936;50.820;4.336;2022-12-18T05:53:15;-0.10;99.90
23520;DHT22;11936;50.820;4.336;2022-12-18T05:55:42;-0.40;99.90
23520;DHT22;11936;50.820;4.336;2022-12-18T05:58:10;-0.40;99.90
23520;DHT22;11936;50.820;4.336;2022-12-18T06:00:37;-0.30;99.90
23520;DHT22;11936;50.820;4.336;2022-12-18T06:03:07;-0.20;99.90
23520;DHT22;11936;50.820;4.336;2022-12-18T06:05:40;-0.20;99.90
23520;DHT22;11936;50.820;4.336;2022-12-18T06:08:06;0.00;99.90
23520;DHT22;11936;50.820;4.336;2022-12-18T06:10:32;-0.10;99.90
23520;DHT22;11936;50.820;4.336;2022-12-18T06:12:58;-0.20;99.90
23520;DHT22;11936;50.820;4.336;2022-12-18T06:15:24;-0.10;99.90
23520;DHT22;11936;50.820;4.336;2022-12-18T06:17:50;-0.10;99.90
23520;DHT22;11936;50.820;4.336;2022-12-18T06:20:15;-0.10;99.90
23520;DHT22;11936;50.820;4.336;2022-12-18T06:22:41;-0.10;99.90
23520;DHT22;11936;50.820;4.336;2022-12-18T06:25:07;-0.10;99.90
23520;DHT22;11936;50.820;4.336;2022-12-18T06:27:33;-0.10;99.90
23520;DHT22;11936;50.820;4.336;2022-12-18T06:30:01;0.00;99.90
23520;DHT22;11936;50.820;4.336;2022-12-18T06:32:27;0.10;99.90
23520;DHT22;11936;50.820;4.336;2022-12-18T06:34:53;0.20;99.90
23520;DHT22;11936;50.820;4.336;2022-12-18T06:37:20;0.00;99.90
23520;DHT22;11936;50.820;4.336;2022-12-18T06:39:46;-0.10;99.90
23520;DHT22;11936;50.820;4.336;2022-12-18T06:42:12;-0.20;99.90
23520;DHT22;11936;50.820;4.336;2022-12-18T06:44:37;-0.20;99.90
23520;DHT22;11936;50.820;4.336;2022-12-18T06:47:03;-0.20;99.90
23520;DHT22;11936;50.820;4.336;2022-12-18T06:49:31;-0.20;99.90
23520;DHT22;11936;50.820;4.336;2022-12-18T06:51:57;-0.20;99.90
23520;DHT22;11936;50.820;4.336;2022-12-18T06:54:22;0.00;99.90
23520;DHT22;11936;50.820;4.336;2022-12-18T06:56:48;0.00;99.90
23520;DHT22;11936;50.820;4.336;2022-12-18T06:59:14;-0.10;99.90
23520;DHT22;11936;50.820;4.336;2022-12-18T07:01:40;0.10;99.90
23520;DHT22;11936;50.820;4.336;2022-12-18T07:04:06;0.10;99.90
23520;DHT22;11936;50.820;4.336;2022-12-18T07:06:31;0.20;99.90
23520;DHT22;11936;50.820;4.336;2022-12-18T07:08:57;0.10;99.90
23520;DHT22;11936;50.820;4.336;2022-12-18T07:11:23;0.20;99.90
23520;DHT22;11936;50.820;4.336;2022-12-18T07:13:49;0.20;99.90
23520;DHT22;11936;50.820;4.336;2022-12-18T07:16:17;0.10;99.90
23520;DHT22;11936;50.820;4.336;2022-12-18T07:18:44;0.20;99.90
23520;DHT22;11936;50.820;4.336;2022-12-18T07:21:12;0.00;99.90
23520;DHT22;11936;50.820;4.336;2022-12-18T07:23:38;0.00;99.90
23520;DHT22;11936;50.820;4.336;2022-12-18T07:26:09;0.00;99.90
23520;DHT22;11936;50.820;4.336;2022-12-18T07:28:37;0.00;99.90
23520;DHT22;11936;50.820;4.336;2022-12-18T07:31:04;0.00;99.90
23520;DHT22;11936;50.820;4.336;2022-12-18T07:33:29;0.00;99.90
23520;DHT22;11936;50.820;4.336;2022-12-18T07:35:55;0.10;99.90
23520;DHT22;11936;50.820;4.336;2022-12-18T07:38:21;0.10;99.90
23520;DHT22;11936;50.820;4.336;2022-12-18T07:40:46;0.20;99.90
23520;DHT22;11936;50.820;4.336;2022-12-18T07:43:12;0.30;99.90
23520;DHT22;11936;50.820;4.336;2022-12-18T07:45:37;0.20;99.90
23520;DHT22;11936;50.820;4.336;2022-12-18T07:48:04;0.10;99.90
23520;DHT22;11936;50.820;4.336;2022-12-18T07:50:32;0.10;99.90
23520;DHT22;11936;50.820;4.336;2022-12-18T07:52:57;0.00;99.90
23520;DHT22;11936;50.820;4.336;2022-12-18T07:55:23;0.10;99.90
23520;DHT22;11936;50.820;4.336;2022-12-18T07:57:49;0.10;99.90
23520;DHT22;11936;50.820;4.336;2022-12-18T08:00:14;0.10;99.90
23520;DHT22;11936;50.820;4.336;2022-12-18T08:02:40;0.30;99.90
23520;DHT22;11936;50.820;4.336;2022-12-18T08:05:06;0.20;99.90
23520;DHT22;11936;50.820;4.336;2022-12-18T08:07:31;0.30;99.90
23520;DHT22;11936;50.820;4.336;2022-12-18T08:09:57;0.20;99.90
23520;DHT22;11936;50.820;4.336;2022-12-18T08:12:22;0.40;99.90
23520;DHT22;11936;50.820;4.336;2022-12-18T08:14:48;0.50;99.90
23520;DHT22;11936;50.820;4.336;2022-12-18T08:17:14;0.70;99.90
23520;DHT22;11936;50.820;4.336;2022-12-18T08:19:39;0.60;99.90
23520;DHT22;11936;50.820;4.336;2022-12-18T08:22:05;0.70;99.90
23520;DHT22;11936;50.820;4.336;2022-12-18T08:24:30;0.90;99.90
23520;DHT22;11936;50.820;4.336;2022-12-18T08:26:56;0.90;99.90
23520;DHT22;11936;50.820;4.336;2022-12-18T08:29:22;0.90;99.90
23520;DHT22;11936;50.820;4.336;2022-12-18T08:31:48;1.00;99.90
23520;DHT22;11936;50.820;4.336;2022-12-18T08:34:13;1.10;99.90
23520;DHT22;11936;50.820;4.336;2022-12-18T08:36:39;1.10;99.90
23520;DHT22;11936;50.820;4.336;2022-12-18T08:39:05;1.20;99.90
23520;DHT22;11936;50.820;4.336;2022-12-18T08:41:31;1.00;99.90
23520;DHT22;11936;50.820;4.336;2022-12-18T08:43:56;1.00;99.90
23520;DHT22;11936;50.820;4.336;2022-12-18T08:46:42;1.00;99.90
23520;DHT22;11936;50.820;4.336;2022-12-18T08:49:09;1.10;99.90
23520;DHT22;11936;50.820;4.336;2022-12-18T08:51:35;1.10;99.90
23520;DHT22;11936;50.820;4.336;2022-12-18T08:54:01;1.20;99.90
23520;DHT22;11936;50.820;4.336;2022-12-18T08:56:27;1.20;99.90
23520;DHT22;11936;50.820;4.336;2022-12-18T08:58:54;1.20;99.90
23520;DHT22;11936;50.820;4.336;2022-12-18T09:01:20;1.20;99.90
23520;DHT22;11936;50.820;4.336;2022-12-18T09:03:46;1.40;99.90
23520;DHT22;11936;50.820;4.336;2022-12-18T09:06:14;1.50;99.90
23520;DHT22;11936;50.820;4.336;2022-12-18T09:08:41;1.40;99.90
23520;DHT22;11936;50.820;4.336;2022-12-18T09:11:21;1.60;99.90
23520;DHT22;11936;50.820;4.336;2022-12-18T09:13:48;1.70;99.90
23520;DHT22;11936;50.820;4.336;2022-12-18T09:16:14;1.80;99.90
23520;DHT22;11936;50.820;4.336;2022-12-18T09:18:40;1.90;99.90
23520;DHT22;11936;50.820;4.336;2022-12-18T09:21:14;1.50;99.90
23520;DHT22;11936;50.820;4.336;2022-12-18T09:23:42;1.70;99.90
23520;DHT22;11936;50.820;4.336;2022-12-18T09:26:08;1.70;99.90
23520;DHT22;11936;50.820;4.336;2022-12-18T09:28:33;1.60;99.90
23520;DHT22;11936;50.820;4.336;2022-12-18T09:31:04;1.70;99.90
23520;DHT22;11936;50.820;4.336;2022-12-18T09:33:30;1.90;99.90
23520;DHT22;11936;50.820;4.336;2022-12-18T09:35:56;1.80;99.90
23520;DHT22;11936;50.820;4.336;2022-12-18T09:38:21;1.80;99.90
23520;DHT22;11936;50.820;4.336;2022-12-18T09:40:51;1.60;99.90
23520;DHT22;11936;50.820;4.336;2022-12-18T09:43:26;1.70;99.90
23520;DHT22;11936;50.820;4.336;2022-12-18T09:46:03;1.90;99.90
23520;DHT22;11936;50.820;4.336;2022-12-18T09:48:34;1.90;99.90
23520;DHT22;11936;50.820;4.336;2022-12-18T09:51:05;2.00;99.90
23520;DHT22;11936;50.820;4.336;2022-12-18T09:53:34;2.00;99.90
23520;DHT22;11936;50.820;4.336;2022-12-18T09:56:03;2.20;99.90
23520;DHT22;11936;50.820;4.336;2022-12-18T09:58:36;2.20;99.70
23520;DHT22;11936;50.820;4.336;2022-12-18T10:01:18;2.20;99.70
23520;DHT22;11936;50.820;4.336;2022-12-18T10:03:45;2.30;99.90
23520;DHT22;11936;50.820;4.336;2022-12-18T10:09:03;2.70;99.30
23520;DHT22;11936;50.820;4.336;2022-12-18T10:22:41;2.60;99.20
23520;DHT22;11936;50.820;4.336;2022-12-18T10:27:40;2.70;98.70
23520;DHT22;11936;50.820;4.336;2022-12-18T10:30:16;2.70;98.60
23520;DHT22;11936;50.820;4.336;2022-12-18T10:32:43;2.80;98.80
23520;DHT22;11936;50.820;4.336;2022-12-18T10:35:18;2.80;98.90
23520;DHT22;11936;50.820;4.336;2022-12-18T10:38:01;2.80;98.80
23520;DHT22;11936;50.820;4.336;2022-12-18T10:40:28;2.90;98.70
23520;DHT22;11936;50.820;4.336;2022-12-18T10:43:04;2.90;98.70
23520;DHT22;11936;50.820;4.336;2022-12-18T10:45:31;2.90;98.90
23520;DHT22;11936;50.820;4.336;2022-12-18T10:47:56;3.00;98.90
23520;DHT22;11936;50.820;4.336;2022-12-18T10:50:29;3.00;98.50
23520;DHT22;11936;50.820;4.336;2022-12-18T10:52:59;3.10;98.60
23520;DHT22;11936;50.820;4.336;2022-12-18T10:55:31;3.20;98.70
23520;DHT22;11936;50.820;4.336;2022-12-18T10:58:16;3.20;98.50
23520;DHT22;11936;50.820;4.336;2022-12-18T11:00:42;3.20;98.70
23520;DHT22;11936;50.820;4.336;2022-12-18T11:03:31;3.20;98.50
23520;DHT22;11936;50.820;4.336;2022-12-18T11:06:06;3.20;98.60
23520;DHT22;11936;50.820;4.336;2022-12-18T11:08:32;3.30;98.50
23520;DHT22;11936;50.820;4.336;2022-12-18T11:10:58;3.40;98.40
23520;DHT22;11936;50.820;4.336;2022-12-18T11:13:26;3.50;98.30
23520;DHT22;11936;50.820;4.336;2022-12-18T11:15:52;3.20;98.00
23520;DHT22;11936;50.820;4.336;2022-12-18T11:18:38;3.10;99.10
23520;DHT22;11936;50.820;4.336;2022-12-18T11:21:09;3.10;99.30
23520;DHT22;11936;50.820;4.336;2022-12-18T11:23:36;3.10;99.10
23520;DHT22;11936;50.820;4.336;2022-12-18T11:26:04;3.00;99.10
23520;DHT22;11936;50.820;4.336;2022-12-18T11:28:37;3.10;98.90
23520;DHT22;11936;50.820;4.336;2022-12-18T11:31:20;3.10;99.00
23520;DHT22;11936;50.820;4.336;2022-12-18T11:36:25;3.30;99.20
23520;DHT22;11936;50.820;4.336;2022-12-18T11:38:54;3.30;99.00
23520;DHT22;11936;50.820;4.336;2022-12-18T11:50:21;3.60;98.90
23520;DHT22;11936;50.820;4.336;2022-12-18T11:52:49;3.50;98.90
23520;DHT22;11936;50.820;4.336;2022-12-18T11:55:44;3.40;98.90
23520;DHT22;11936;50.820;4.336;2022-12-18T12:04:05;3.60;98.90
23520;DHT22;11936;50.820;4.336;2022-12-18T12:17:42;3.70;98.80
23520;DHT22;11936;50.820;4.336;2022-12-18T12:22:59;3.50;98.90
23520;DHT22;11936;50.820;4.336;2022-12-18T12:34:15;3.80;98.70
23520;DHT22;11936;50.820;4.336;2022-12-18T12:39:22;3.90;98.50
23520;DHT22;11936;50.820;4.336;2022-12-18T12:41:48;3.80;98.90
23520;DHT22;11936;50.820;4.336;2022-12-18T12:44:37;3.80;98.70
23520;DHT22;11936;50.820;4.336;2022-12-18T12:47:14;4.00;98.90
23520;DHT22;11936;50.820;4.336;2022-12-18T12:49:42;4.10;99.00
23520;DHT22;11936;50.820;4.336;2022-12-18T12:52:16;4.20;98.90
23520;DHT22;11936;50.820;4.336;2022-12-18T12:54:43;4.00;98.40
23520;DHT22;11936;50.820;4.336;2022-12-18T12:57:15;4.10;98.30
23520;DHT22;11936;50.820;4.336;2022-12-18T13:00:04;3.80;98.40
23520;DHT22;11936;50.820;4.336;2022-12-18T13:05:02;3.60;98.50
23520;DHT22;11936;50.820;4.336;2022-12-18T13:07:47;3.60;98.70
23520;DHT22;11936;50.820;4.336;2022-12-18T13:23:00;3.60;99.20
23520;DHT22;11936;50.820;4.336;2022-12-18T13:25:37;3.70;99.10
23520;DHT22;11936;50.820;4.336;2022-12-18T13:28:08;3.50;99.30
23520;DHT22;11936;50.820;4.336;2022-12-18T13:43:45;3.30;99.40
23520;DHT22;11936;50.820;4.336;2022-12-18T13:51:20;3.20;99.90
23520;DHT22;11936;50.820;4.336;2022-12-18T13:56:43;3.40;99.90
23520;DHT22;11936;50.820;4.336;2022-12-18T13:59:18;3.60;99.90
23520;DHT22;11936;50.820;4.336;2022-12-18T14:01:47;3.60;99.90
23520;DHT22;11936;50.820;4.336;2022-12-18T14:04:20;3.60;99.80
23520;DHT22;11936;50.820;4.336;2022-12-18T14:06:47;3.60;99.60
23520;DHT22;11936;50.820;4.336;2022-12-18T14:09:16;3.50;99.80
23520;DHT22;11936;50.820;4.336;2022-12-18T14:11:51;3.50;99.60
23520;DHT22;11936;50.820;4.336;2022-12-18T14:14:18;3.50;99.80
23520;DHT22;11936;50.820;4.336;2022-12-18T14:16:46;3.50;99.90
23520;DHT22;11936;50.820;4.336;2022-12-18T14:19:17;3.60;99.90
23520;DHT22;11936;50.820;4.336;2022-12-18T14:21:50;3.50;99.90
23520;DHT22;11936;50.820;4.336;2022-12-18T14:24:21;3.50;99.90
23520;DHT22;11936;50.820;4.336;2022-12-18T14:26:49;3.50;99.90
23520;DHT22;11936;50.820;4.336;2022-12-18T14:29:29;3.50;99.90
23520;DHT22;11936;50.820;4.336;2022-12-18T14:32:16;3.40;99.90
23520;DHT22;11936;50.820;4.336;2022-12-18T14:34:45;3.40;99.80
23520;DHT22;11936;50.820;4.336;2022-12-18T14:37:13;3.50;99.90
23520;DHT22;11936;50.820;4.336;2022-12-18T14:39:39;3.50;99.90
23520;DHT22;11936;50.820;4.336;2022-12-18T14:42:05;3.50;99.80
23520;DHT22;11936;50.820;4.336;2022-12-18T14:44:31;3.40;99.80
23520;DHT22;11936;50.820;4.336;2022-12-18T14:46:57;3.50;99.80
23520;DHT22;11936;50.820;4.336;2022-12-18T14:49:32;3.60;99.80
23520;DHT22;11936;50.820;4.336;2022-12-18T14:52:06;3.60;99.70
23520;DHT22;11936;50.820;4.336;2022-12-18T14:54:32;3.70;99.50
23520;DHT22;11936;50.820;4.336;2022-12-18T14:57:03;3.80;99.40
23520;DHT22;11936;50.820;4.336;2022-12-18T14:59:30;3.90;99.20
23520;DHT22;11936;50.820;4.336;2022-12-18T15:02:00;3.70;99.30
23520;DHT22;11936;50.820;4.336;2022-12-18T15:04:38;3.60;99.50
23520;DHT22;11936;50.820;4.336;2022-12-18T15:07:20;3.50;99.50
23520;DHT22;11936;50.820;4.336;2022-12-18T15:12:39;3.30;99.80
23520;DHT22;11936;50.820;4.336;2022-12-18T15:20:58;3.30;99.80
23520;DHT22;11936;50.820;4.336;2022-12-18T15:26:06;3.40;99.50
23520;DHT22;11936;50.820;4.336;2022-12-18T15:28:34;3.30;99.50
23520;DHT22;11936;50.820;4.336;2022-12-18T15:36:19;3.30;99.60
23520;DHT22;11936;50.820;4.336;2022-12-18T15:38:49;3.30;99.60
23520;DHT22;11936;50.820;4.336;2022-12-18T15:41:16;3.20;99.70
23520;DHT22;11936;50.820;4.336;2022-12-18T15:43:42;3.20;99.60
23520;DHT22;11936;50.820;4.336;2022-12-18T15:46:12;3.10;99.90
23520;DHT22;11936;50.820;4.336;2022-12-18T15:48:43;3.10;99.90
23520;DHT22;11936;50.820;4.336;2022-12-18T15:53:43;3.10;99.90
23520;DHT22;11936;50.820;4.336;2022-12-18T15:56:11;3.20;99.90
23520;DHT22;11936;50.820;4.336;2022-12-18T15:58:56;3.20;99.90
23520;DHT22;11936;50.820;4.336;2022-12-18T16:01:24;3.10;99.90
23520;DHT22;11936;50.820;4.336;2022-12-18T16:03:50;3.10;99.90
23520;DHT22;11936;50.820;4.336;2022-12-18T16:06:16;3.10;99.90
23520;DHT22;11936;50.820;4.336;2022-12-18T16:08:41;3.10;99.90
23520;DHT22;11936;50.820;4.336;2022-12-18T16:13:45;3.20;99.90
23520;DHT22;11936;50.820;4.336;2022-12-18T16:16:10;3.30;99.90
23520;DHT22;11936;50.820;4.336;2022-12-18T16:18:36;3.40;99.80
23520;DHT22;11936;50.820;4.336;2022-12-18T16:21:01;3.40;99.80
23520;DHT22;11936;50.820;4.336;2022-12-18T16:23:28;3.50;99.70
23520;DHT22;11936;50.820;4.336;2022-12-18T16:25:53;3.40;99.80
23520;DHT22;11936;50.820;4.336;2022-12-18T16:28:19;3.10;99.70
23520;DHT22;11936;50.820;4.336;2022-12-18T16:30:48;3.00;99.80
23520;DHT22;11936;50.820;4.336;2022-12-18T16:33:14;3.10;99.90
23520;DHT22;11936;50.820;4.336;2022-12-18T16:35:40;3.00;99.80
23520;DHT22;11936;50.820;4.336;2022-12-18T16:38:06;3.20;99.90
23520;DHT22;11936;50.820;4.336;2022-12-18T16:40:32;3.20;99.70
23520;DHT22;11936;50.820;4.336;2022-12-18T16:42:58;3.20;99.60
23520;DHT22;11936;50.820;4.336;2022-12-18T16:45:26;3.10;99.80
23520;DHT22;11936;50.820;4.336;2022-12-18T16:47:58;3.20;99.80
23520;DHT22;11936;50.820;4.336;2022-12-18T16:50:23;3.10;99.80
23520;DHT22;11936;50.820;4.336;2022-12-18T16:52:49;3.30;99.60
23520;DHT22;11936;50.820;4.336;2022-12-18T16:55:14;3.30;99.60
23520;DHT22;11936;50.820;4.336;2022-12-18T16:57:40;3.30;99.70
23520;DHT22;11936;50.820;4.336;2022-12-18T17:00:06;3.30;99.60
23520;DHT22;11936;50.820;4.336;2022-12-18T17:02:32;3.20;99.80
23520;DHT22;11936;50.820;4.336;2022-12-18T17:04:58;3.30;99.90
23520;DHT22;11936;50.820;4.336;2022-12-18T17:07:25;3.30;99.80
23520;DHT22;11936;50.820;4.336;2022-12-18T17:09:51;3.30;99.80
23520;DHT22;11936;50.820;4.336;2022-12-18T17:12:18;3.40;99.90
23520;DHT22;11936;50.820;4.336;2022-12-18T17:14:44;3.40;99.90
23520;DHT22;11936;50.820;4.336;2022-12-18T17:17:09;3.50;99.90
23520;DHT22;11936;50.820;4.336;2022-12-18T17:19:35;3.50;99.90
23520;DHT22;11936;50.820;4.336;2022-12-18T17:22:01;3.50;99.90
23520;DHT22;11936;50.820;4.336;2022-12-18T17:24:26;3.30;99.90
23520;DHT22;11936;50.820;4.336;2022-12-18T17:26:52;3.40;99.90
23520;DHT22;11936;50.820;4.336;2022-12-18T17:29:19;3.30;99.90
23520;DHT22;11936;50.820;4.336;2022-12-18T17:31:46;3.40;99.90
23520;DHT22;11936;50.820;4.336;2022-12-18T17:34:12;3.30;99.90
23520;DHT22;11936;50.820;4.336;2022-12-18T17:36:38;3.30;99.90
23520;DHT22;11936;50.820;4.336;2022-12-18T17:39:05;3.20;99.90
23520;DHT22;11936;50.820;4.336;2022-12-18T17:41:31;3.20;99.90
23520;DHT22;11936;50.820;4.336;2022-12-18T17:43:59;3.20;99.90
23520;DHT22;11936;50.820;4.336;2022-12-18T17:46:26;3.10;99.90
23520;DHT22;11936;50.820;4.336;2022-12-18T17:48:55;3.10;99.90
23520;DHT22;11936;50.820;4.336;2022-12-18T17:51:21;3.20;99.90
23520;DHT22;11936;50.820;4.336;2022-12-18T17:53:47;3.20;99.90
23520;DHT22;11936;50.820;4.336;2022-12-18T17:56:14;3.30;99.90
23520;DHT22;11936;50.820;4.336;2022-12-18T17:58:40;3.20;99.90
23520;DHT22;11936;50.820;4.336;2022-12-18T18:01:07;3.10;99.90
23520;DHT22;11936;50.820;4.336;2022-12-18T18:03:33;3.10;99.90
23520;DHT22;11936;50.820;4.336;2022-12-18T18:06:02;3.20;99.90
23520;DHT22;11936;50.820;4.336;2022-12-18T18:08:28;3.10;99.90
23520;DHT22;11936;50.820;4.336;2022-12-18T18:10:54;3.00;99.90